Time;durP1;ratioP1;P1;durP2;ratioP2;P2;SDS_P1;SDS_P2;PMS_P1;PMS_P2;Temp;Humidity;BMP_temperature;BMP_pressure;BME280_temperature;BME280_humidity;BME280_pressure;Samples;Min_cycle;Max_cycle;Signal;HPM_P1;HPM_P2
2023/07/18 00:01:07;;;;;;;0.10;0.10;;;;;;;;;;6370016;27;20091;-53
2023/07/18 00:04:09;;;;;;;0.20;0.20;;;;;;;;;;6371494;27;20041;-51
2023/07/18 00:07:11;;;;;;;0.20;0.20;;;;;;;;;;6369902;27;20042;-52
2023/07/18 00:10:13;;;;;;;0.10;0.10;;;;;;;;;;6370228;27;20045;-52
2023/07/18 00:13:16;;;;;;;0.30;0.30;;;24.30;66.40;;;;;;6368365;27;20114;-52
2023/07/18 00:16:17;;;;;;;0.10;0.10;;;;;;;;;;6369966;27;20042;-53
2023/07/18 00:19:19;;;;;;;0.10;0.10;;;;;;;;;;6352027;27;20118;-51
2023/07/18 00:22:21;;;;;;;0.20;0.10;;;;;;;;;;6370251;27;20397;-53
2023/07/18 00:25:23;;;;;;;0.30;0.20;;;;;;;;;;6369128;27;20058;-51
2023/07/18 00:28:26;;;;;;;0.13;0.10;;;24.30;67.70;;;;;;6365609;27;20065;-51
2023/07/18 00:31:30;;;;;;;0.20;0.20;;;;;;;;;;6369259;27;20585;-53
2023/07/18 00:34:33;;;;;;;0.20;0.20;;;;;;;;;;6368995;27;20039;-51
2023/07/18 00:37:35;;;;;;;0.10;0.10;;;;;;;;;;6370280;27;20043;-54
2023/07/18 00:40:40;;;;;;;0.10;0.10;;;23.70;62.80;;;;;;6369484;27;20490;-51
2023/07/18 00:43:42;;;;;;;0.10;0.10;;;24.30;66.00;;;;;;6369561;27;20224;-54
2023/07/18 00:46:46;;;;;;;0.13;0.10;;;24.20;67.60;;;;;;6369109;27;20118;-54
2023/07/18 00:49:48;;;;;;;0.20;0.20;;;24.20;65.10;;;;;;6368760;27;20042;-55
2023/07/18 00:52:51;;;;;;;0.10;0.10;;;24.20;67.10;;;;;;6368938;27;20027;-53
2023/07/18 00:55:56;;;;;;;0.10;0.10;;;;;;;;;;6351473;27;20034;-53
2023/07/18 00:58:59;;;;;;;0.20;0.20;;;24.20;67.30;;;;;;6368236;27;20031;-51
2023/07/18 01:02:02;;;;;;;0.20;0.10;;;;;;;;;;6366783;27;20103;-54
2023/07/18 01:05:07;;;;;;;0.20;0.10;;;24.20;67.60;;;;;;6367803;27;20394;-54
2023/07/18 01:08:09;;;;;;;0.10;0.10;;;;;;;;;;6350170;27;20492;-59
2023/07/18 01:11:11;;;;;;;0.10;0.10;;;;;;;;;;6367247;27;20045;-59
2023/07/18 01:14:14;;;;;;;0.15;0.15;;;24.20;67.40;;;;;;6367484;27;20646;-59
2023/07/18 01:17:17;;;;;;;0.10;0.10;;;;;;;;;;6366611;27;20039;-59
2023/07/18 01:20:23;;;;;;;0.30;0.10;;;24.20;63.40;;;;;;6369403;27;20042;-59
2023/07/18 01:23:26;;;;;;;0.25;0.25;;;24.10;67.80;;;;;;6359494;22;20051;-54
2023/07/18 01:26:28;;;;;;;0.10;0.10;;;;;;;;;;6296864;28;20172;-50
2023/07/18 01:29:32;;;;;;;0.20;0.10;;;24.10;68.10;;;;;;6296634;28;20507;-51
2023/07/18 01:32:35;;;;;;;0.15;0.15;;;;;;;;;;6298411;28;20120;-52
2023/07/18 01:35:37;;;;;;;0.10;0.10;;;;;;;;;;6294393;28;20044;-53
2023/07/18 01:38:39;;;;;;;0.10;0.10;;;24.00;67.20;;;;;;6295115;28;20494;-51
2023/07/18 01:41:45;;;;;;;0.10;0.10;;;24.00;67.70;;;;;;6295925;28;20047;-51
2023/07/18 01:44:47;;;;;;;0.20;0.10;;;;;;;;;;6296530;28;20488;-50
2023/07/18 01:47:49;;;;;;;0.10;0.10;;;24.00;67.80;;;;;;6296329;28;20245;-51
2023/07/18 01:50:51;;;;;;;0.10;0.10;;;;;;;;;;6262510;28;20036;-52
2023/07/18 01:53:53;;;;;;;0.10;0.10;;;24.00;66.90;;;;;;6295306;28;20036;-51
2023/07/18 01:56:56;;;;;;;0.50;0.10;;;;;;;;;;6294121;28;20102;-53
2023/07/18 01:59:58;;;;;;;0.30;0.20;;;24.10;65.80;;;;;;6295103;28;20526;-53
2023/07/18 02:03:00;;;;;;;0.10;0.10;;;;;;;;;;6296935;28;20066;-52
2023/07/18 02:06:02;;;;;;;0.10;0.10;;;;;;;;;;6295938;28;20413;-52
2023/07/18 02:09:04;;;;;;;0.20;0.10;;;24.10;67.10;;;;;;6295653;28;20040;-52
2023/07/18 02:12:09;;;;;;;0.20;0.10;;;24.00;67.60;;;;;;6296376;28;20068;-53
2023/07/18 02:15:13;;;;;;;0.10;0.10;;;24.00;67.80;;;;;;6294761;28;20209;-50
2023/07/18 02:18:15;;;;;;;0.00;0.00;;;24.00;63.90;;;;;;6294920;28;20044;-53
2023/07/18 02:21:17;;;;;;;0.13;0.10;;;;;;;;;;6294558;28;20040;-51
2023/07/18 02:24:20;;;;;;;0.13;0.10;;;24.00;68.00;;;;;;6294836;28;20527;-52
2023/07/18 02:27:22;;;;;;;0.17;0.10;;;;;;;;;;6294821;28;20332;-49
2023/07/18 02:30:27;;;;;;;0.10;0.10;;;;;;;;;;6294161;28;20255;-52
2023/07/18 02:33:28;;;;;;;0.38;0.10;;;;;;;;;;6293720;28;20446;-51
2023/07/18 02:36:30;;;;;;;0.28;0.10;;;;;;;;;;6294220;28;20044;-52
2023/07/18 02:39:36;;;;;;;0.25;0.10;;;23.90;68.00;;;;;;6293768;28;20044;-52
2023/07/18 02:42:38;;;;;;;0.20;0.20;;;23.90;66.70;;;;;;6294517;28;20566;-52
2023/07/18 02:45:43;;;;;;;0.17;0.17;;;;;;;;;;6276645;28;20039;-52
2023/07/18 02:48:45;;;;;;;0.10;0.00;;;;;;;;;;6294562;28;20048;-51
2023/07/18 02:51:47;;;;;;;0.25;0.17;;;;;;;;;;6293202;28;20032;-50
2023/07/18 02:54:50;;;;;;;0.20;0.20;;;23.90;68.30;;;;;;6293054;28;20036;-54
2023/07/18 02:57:53;;;;;;;0.10;0.10;;;;;;;;;;6292627;28;20059;-51
2023/07/18 03:00:54;;;;;;;0.20;0.20;;;;;;;;;;6293092;28;20114;-53
2023/07/18 03:03:58;;;;;;;0.10;0.10;;;;;;;;;;6292449;28;20126;-54
2023/07/18 03:07:00;;;;;;;0.20;0.20;;;23.80;66.80;;;;;;6275662;28;20036;-51
2023/07/18 03:10:03;;;;;;;0.20;0.10;;;23.70;67.50;;;;;;6274110;28;20040;-52
2023/07/18 03:13:05;;;;;;;0.40;0.20;;;;;;;;;;6294356;28;20047;-49
2023/07/18 03:16:07;;;;;;;0.15;0.10;;;;;;;;;;6293285;28;20040;-49
2023/07/18 03:19:11;;;;;;;0.20;0.20;;;;;;;;;;6296066;28;20044;-60
2023/07/18 03:22:14;;;;;;;0.10;0.10;;;;;;;;;;6299941;28;20040;-61
2023/07/18 03:25:17;;;;;;;0.38;0.20;;;23.60;68.40;;;;;;6300453;28;20036;-61
2023/07/18 03:28:19;;;;;;;0.20;0.20;;;;;;;;;;6300569;28;20097;-61
2023/07/18 03:31:21;;;;;;;0.30;0.10;;;;;;;;;;6297553;28;20028;-61
2023/07/18 03:34:23;;;;;;;0.35;0.10;;;;;;;;;;6297908;28;20140;-61
2023/07/18 03:37:25;;;;;;;0.43;0.25;;;;;;;;;;6298240;28;20244;-61
2023/07/18 03:40:31;;;;;;;0.15;0.15;;;23.60;68.40;;;;;;6300123;28;20248;-61
2023/07/18 03:43:32;;;;;;;0.20;0.10;;;;;;;;;;6299056;28;20032;-61
2023/07/18 03:46:34;;;;;;;0.13;0.13;;;;;;;;;;6300210;28;20891;-61
2023/07/18 03:49:39;;;;;;;0.35;0.20;;;;;;;;;;6300410;28;20046;-61
2023/07/18 03:52:41;;;;;;;0.50;0.43;;;;;;;;;;6299455;28;20046;-61
2023/07/18 03:55:43;;;;;;;0.10;0.10;;;23.60;65.70;;;;;;6297879;28;20040;-61
2023/07/18 03:58:45;;;;;;;0.32;0.25;;;;;;;;;;6297481;28;20040;-62
2023/07/18 04:01:47;;;;;;;0.17;0.17;;;;;;;;;;6300674;28;20032;-62
2023/07/18 04:04:49;;;;;;;0.50;0.40;;;;;;;;;;6298859;28;20035;-61
2023/07/18 04:07:51;;;;;;;0.30;0.20;;;;;;;;;;6297765;28;20467;-61
2023/07/18 04:10:53;;;;;;;0.20;0.15;;;23.60;66.20;;;;;;6304420;28;20036;-62
2023/07/18 04:13:55;;;;;;;0.20;0.20;;;;;;;;;;6301602;28;20417;-61
2023/07/18 04:16:57;;;;;;;0.22;0.20;;;;;;;;;;6290673;28;20032;-61
2023/07/18 04:20:00;;;;;;;0.45;0.28;;;;;;;;;;6288015;28;20483;-61
2023/07/18 04:23:02;;;;;;;0.20;0.20;;;;;;;;;;6292130;28;20032;-61
2023/07/18 04:26:09;;;;;;;0.28;0.20;;;23.60;75.70;;;;;;6292505;28;20115;-61
2023/07/18 04:29:12;;;;;;;0.25;0.15;;;;;;;;;;6291722;28;20044;-62
2023/07/18 04:32:13;;;;;;;0.55;0.40;;;;;;;;;;6290529;28;20044;-61
2023/07/18 04:35:18;;;;;;;0.20;0.20;;;;;;;;;;6290992;28;20036;-61
2023/07/18 04:38:20;;;;;;;0.25;0.20;;;;;;;;;;6290668;28;20028;-62
2023/07/18 04:41:22;;;;;;;0.65;0.10;;;23.50;67.30;;;;;;6289213;28;20048;-61
2023/07/18 04:44:24;;;;;;;1.00;0.20;;;;;;;;;;6291990;28;20036;-61
2023/07/18 04:47:28;;;;;;;0.30;0.30;;;23.50;62.50;;;;;;6273739;28;20042;-61
2023/07/18 04:50:31;;;;;;;0.30;0.20;;;;;;;;;;6289518;28;20068;-61
2023/07/18 04:53:33;;;;;;;0.40;0.20;;;23.50;64.90;;;;;;6290010;28;20418;-61
2023/07/18 04:56:35;;;;;;;0.30;0.30;;;23.50;66.50;;;;;;6270549;28;20402;-61
2023/07/18 04:59:36;;;;;;;0.30;0.30;;;;;;;;;;6292102;28;20040;-61
2023/07/18 05:02:40;;;;;;;0.75;0.20;;;;;;;;;;6287688;28;20611;-61
2023/07/18 05:05:42;;;;;;;0.20;0.20;;;;;;;;;;6276466;28;20052;-61
2023/07/18 05:08:47;;;;;;;0.30;0.22;;;;;;;;;;6280407;28;20445;-61
2023/07/18 05:11:49;;;;;;;0.20;0.20;;;23.50;66.90;;;;;;6282560;28;20040;-61
2023/07/18 05:14:51;;;;;;;0.60;0.30;;;;;;;;;;6293567;28;20052;-62
2023/07/18 05:17:53;;;;;;;0.82;0.20;;;;;;;;;;6285152;28;20040;-61
2023/07/18 05:20:58;;;;;;;0.30;0.20;;;23.50;67.70;;;;;;6282215;28;20054;-62
2023/07/18 05:24:00;;;;;;;0.20;0.20;;;23.60;74.40;;;;;;6281478;28;20438;-61
2023/07/18 05:27:02;;;;;;;0.32;0.20;;;24.30;67.70;;;;;;6287867;28;20593;-61
2023/07/18 05:30:05;;;;;;;0.40;0.20;;;23.30;65.20;;;;;;6285806;28;20119;-61
2023/07/18 05:33:07;;;;;;;0.20;0.20;;;23.50;67.40;;;;;;6268497;28;20040;-61
2023/07/18 05:36:12;;;;;;;0.95;0.38;;;;;;;;;;6267600;28;20037;-61
2023/07/18 05:39:14;;;;;;;0.25;0.20;;;;;;;;;;6282184;28;20098;-61
2023/07/18 05:42:16;;;;;;;0.30;0.30;;;23.50;67.80;;;;;;6284156;28;20407;-61
2023/07/18 05:45:18;;;;;;;0.95;0.20;;;;;;;;;;6283718;28;20089;-61
2023/07/18 05:48:23;;;;;;;0.35;0.20;;;;;;;;;;6284306;28;20679;-61
2023/07/18 05:51:24;;;;;;;0.45;0.38;;;;;;;;;;6285585;28;20799;-62
2023/07/18 05:54:28;;;;;;;0.82;0.50;;;;;;;;;;6283712;28;20047;-60
2023/07/18 05:57:31;;;;;;;1.65;0.63;;;23.40;68.50;;;;;;6281083;28;20071;-61
2023/07/18 06:00:32;;;;;;;1.73;1.00;;;;;;;;;;6284140;28;20032;-60
2023/07/18 06:03:37;;;;;;;0.80;0.70;;;;;;;;;;6282293;28;20044;-61
2023/07/18 06:06:39;;;;;;;1.48;0.70;;;;;;;;;;6287177;28;20032;-61
2023/07/18 06:09:44;;;;;;;1.08;0.80;;;;;;;;;;6288968;28;20040;-61
2023/07/18 06:12:47;;;;;;;1.50;0.68;;;23.30;68.40;;;;;;6290657;28;20111;-61
2023/07/18 06:15:49;;;;;;;1.13;0.50;;;;;;;;;;6291549;28;20048;-61
2023/07/18 06:18:52;;;;;;;1.35;0.55;;;;;;;;;;6290847;28;20052;-61
2023/07/18 06:21:54;;;;;;;1.42;0.40;;;;;;;;;;6287340;28;20033;-61
2023/07/18 06:24:56;;;;;;;2.10;0.55;;;;;;;;;;6288480;28;20067;-60
2023/07/18 06:28:00;;;;;;;1.88;0.65;;;23.30;69.20;;;;;;6290504;28;20043;-60
2023/07/18 06:31:02;;;;;;;0.65;0.43;;;;;;;;;;6290742;28;20040;-60
2023/07/18 06:34:04;;;;;;;1.10;0.50;;;;;;;;;;6291095;28;20107;-60
2023/07/18 06:37:08;;;;;;;1.02;0.60;;;;;;;;;;6289415;28;20036;-60
2023/07/18 06:40:13;;;;;;;0.68;0.40;;;23.30;66.60;;;;;;6288745;28;20106;-58
2023/07/18 06:43:18;;;;;;;0.73;0.40;;;23.30;69.10;;;;;;6269809;28;20058;-56
2023/07/18 06:46:21;;;;;;;2.67;0.95;;;;;;;;;;6287752;28;20034;-59
2023/07/18 06:49:23;;;;;;;0.43;0.32;;;;;;;;;;6282780;28;20040;-59
2023/07/18 06:52:29;;;;;;;2.30;0.60;;;;;;;;;;6287522;28;20068;-58
2023/07/18 06:55:33;;;;;;;0.75;0.30;;;;;;;;;;6285227;28;20032;-58
2023/07/18 06:58:35;;;;;;;1.55;0.30;;;23.40;68.80;;;;;;6286753;28;20043;-59
2023/07/18 07:01:37;;;;;;;0.70;0.30;;;;;;;;;;6276047;28;20036;-59
2023/07/18 07:04:39;;;;;;;0.40;0.30;;;23.30;66.70;;;;;;6283068;28;20107;-59
2023/07/18 07:07:41;;;;;;;1.33;0.50;;;;;;;;;;6282076;28;20039;-59
2023/07/18 07:10:45;;;;;;;1.00;0.30;;;;;;;;;;6283731;28;20093;-59
2023/07/18 07:13:47;;;;;;;1.77;0.35;;;23.60;67.70;;;;;;6280483;28;20032;-59
2023/07/18 07:16:49;;;;;;;0.60;0.30;;;;;;;;;;6279262;28;20934;-59
2023/07/18 07:19:51;;;;;;;1.52;0.55;;;;;;;;;;6285448;28;20101;-58
2023/07/18 07:22:53;;;;;;;1.02;0.52;;;;;;;;;;6281103;28;20036;-58
2023/07/18 07:25:55;;;;;;;0.90;0.30;;;;;;;;;;6278902;28;20067;-55
2023/07/18 07:29:03;;;;;;;1.38;0.40;;;23.50;68.60;;;;;;6286703;28;20036;-59
2023/07/18 07:32:05;;;;;;;0.30;0.28;;;;;;;;;;6281341;28;20468;-59
2023/07/18 07:35:09;;;;;;;0.45;0.40;;;;;;;;;;6287781;28;20044;-59
2023/07/18 07:38:13;;;;;;;1.08;0.25;;;;;;;;;;6282123;28;20533;-58
2023/07/18 07:41:15;;;;;;;0.40;0.20;;;;;;;;;;6281278;28;20032;-58
2023/07/18 07:44:17;;;;;;;0.38;0.30;;;23.60;68.90;;;;;;6283951;28;20037;-59
2023/07/18 07:47:19;;;;;;;0.60;0.40;;;;;;;;;;6281552;28;20036;-59
2023/07/18 07:50:23;;;;;;;0.40;0.20;;;23.70;69.20;;;;;;6284039;28;20040;-59
2023/07/18 07:53:25;;;;;;;0.50;0.40;;;;;;;;;;6280592;28;20552;-60
2023/07/18 07:56:27;;;;;;;2.13;0.73;;;;;;;;;;6277283;28;20032;-60
2023/07/18 07:59:32;;;;;;;0.65;0.43;;;23.70;67.90;;;;;;6281839;28;20534;-60
2023/07/18 08:02:34;;;;;;;0.40;0.30;;;;;;;;;;6284408;28;20111;-59
2023/07/18 08:05:36;;;;;;;0.50;0.40;;;;;;;;;;6274424;28;20068;-60
2023/07/18 08:08:37;;;;;;;0.60;0.38;;;;;;;;;;6279128;28;20235;-60
2023/07/18 08:11:42;;;;;;;0.60;0.38;;;;;;;;;;6278639;28;20705;-60
2023/07/18 08:14:48;;;;;;;0.32;0.30;;;23.80;66.10;;;;;;6262670;28;20477;-60
2023/07/18 08:17:50;;;;;;;0.63;0.20;;;;;;;;;;6270177;28;20122;-60
2023/07/18 08:20:52;;;;;;;1.00;0.30;;;;;;;;;;6278174;28;20036;-60
2023/07/18 08:23:55;;;;;;;1.00;0.30;;;;;;;;;;6281345;28;20040;-60
2023/07/18 08:27:00;;;;;;;0.60;0.30;;;;;;;;;;6280145;28;20268;-60
2023/07/18 08:30:03;;;;;;;1.75;0.20;;;;;;;;;;6278930;28;20040;-60
2023/07/18 08:33:04;;;;;;;0.82;0.28;;;;;;;;;;6278847;28;20040;-60
2023/07/18 08:36:07;;;;;;;0.40;0.32;;;23.90;68.00;;;;;;6279299;28;20119;-60
2023/07/18 08:39:09;;;;;;;0.30;0.20;;;;;;;;;;6270015;28;20526;-60
2023/07/18 08:42:14;;;;;;;0.45;0.30;;;23.90;68.60;;;;;;6276642;28;20241;-60
2023/07/18 08:45:16;;;;;;;0.52;0.32;;;24.00;68.60;;;;;;6277760;28;20029;-60
2023/07/18 08:48:18;;;;;;;0.75;0.40;;;;;;;;;;6277772;28;20502;-49
2023/07/18 08:51:25;;;;;;;0.40;0.30;;;24.00;67.60;;;;;;6276402;28;20040;-50
2023/07/18 08:54:27;;;;;;;0.40;0.30;;;;;;;;;;6276376;28;20119;-50
2023/07/18 08:57:30;;;;;;;0.30;0.30;;;;;;;;;;6279192;28;20032;-49
2023/07/18 09:00:32;;;;;;;0.43;0.30;;;23.80;67.40;;;;;;6278954;28;20036;-50
2023/07/18 09:03:34;;;;;;;0.63;0.30;;;;;;;;;;6274944;28;20040;-51
2023/07/18 09:06:36;;;;;;;0.30;0.30;;;;;;;;;;6271649;28;20047;-52
2023/07/18 09:09:46;;;;;;;1.58;0.60;;;24.30;68.10;;;;;;6276368;28;20064;-55
2023/07/18 09:12:52;;;;;;;0.32;0.30;;;24.00;66.00;;;;;;6261223;28;20654;-48
2023/07/18 09:15:59;;;;;;;0.80;0.40;;;24.00;67.10;;;;;;6280739;28;20036;-50
2023/07/18 09:19:00;;;;;;;0.50;0.30;;;;;;;;;;6278336;28;20550;-52
2023/07/18 09:22:02;;;;;;;0.30;0.25;;;;;;;;;;6274669;28;20040;-50
2023/07/18 09:25:05;;;;;;;0.60;0.30;;;;;;;;;;6277023;28;20040;-51
2023/07/18 09:28:09;;;;;;;0.50;0.30;;;24.10;66.90;;;;;;6278014;28;20276;-49
2023/07/18 09:31:20;;;;;;;0.35;0.30;;;24.20;66.60;;;;;;6261948;28;20406;-50
2023/07/18 09:34:25;;;;;;;0.20;0.20;;;24.10;66.60;;;;;;6258130;28;20064;-51
2023/07/18 09:37:27;;;;;;;0.50;0.30;;;23.60;64.10;;;;;;6276459;28;20521;-51
2023/07/18 09:40:29;;;;;;;0.20;0.20;;;;;;;;;;6259753;28;20450;-49
2023/07/18 09:43:33;;;;;;;0.13;0.10;;;;;;;;;;6279649;28;20195;-50
2023/07/18 09:46:39;;;;;;;1.58;0.47;;;24.30;66.60;;;;;;6278852;28;20374;-51
2023/07/18 09:49:42;;;;;;;1.58;0.40;;;24.10;64.10;;;;;;6277899;28;20104;-50
2023/07/18 09:52:49;;;;;;;0.77;0.38;;;23.40;66.00;;;;;;6279606;28;20040;-47
2023/07/18 09:55:52;;;;;;;0.73;0.57;;;24.30;65.40;;;;;;6260926;28;20560;-49
2023/07/18 09:58:56;;;;;;;0.75;0.40;;;24.10;66.50;;;;;;6282402;28;20168;-48
2023/07/18 10:02:05;;;;;;;0.90;0.60;;;24.30;65.80;;;;;;6277516;28;20161;-51
2023/07/18 10:05:14;;;;;;;1.45;0.50;;;24.30;65.80;;;;;;6276136;28;20063;-51
2023/07/18 10:08:17;;;;;;;0.50;0.38;;;24.30;65.80;;;;;;6239917;28;20210;-49
2023/07/18 10:11:19;;;;;;;0.65;0.40;;;;;;;;;;6271640;28;20055;-49
2023/07/18 10:14:25;;;;;;;0.52;0.30;;;;;;;;;;6262146;28;20044;-44
2023/07/18 10:17:35;;;;;;;1.05;0.40;;;24.40;66.20;;;;;;6271888;28;20036;-50
2023/07/18 10:20:39;;;;;;;0.40;0.40;;;;;;;;;;6276533;28;20119;-51
2023/07/18 10:23:42;;;;;;;0.50;0.40;;;24.50;65.40;;;;;;6274532;28;20419;-52
2023/07/18 10:26:44;;;;;;;0.50;0.32;;;;;;;;;;6276456;28;20040;-48
2023/07/18 10:30:03;;;;;;;0.60;0.43;;;24.50;65.40;;;;;;6269507;28;20150;-51
2023/07/18 10:33:08;;;;;;;1.45;0.50;;;24.40;65.20;;;;;;6253165;28;20238;-51
2023/07/18 10:36:23;;;;;;;0.32;0.30;;;24.70;65.20;;;;;;6272874;28;20063;-48
2023/07/18 10:39:38;;;;;;;2.38;0.32;;;24.60;65.10;;;;;;6254103;28;20047;-47
2023/07/18 10:42:43;;;;;;;0.40;0.20;;;24.50;64.90;;;;;;6270940;28;20461;-50
2023/07/18 10:45:45;;;;;;;0.55;0.40;;;24.60;66.10;;;;;;6266330;28;20180;-51
2023/07/18 10:48:49;;;;;;;0.32;0.22;;;24.70;64.90;;;;;;6279224;28;20075;-47
2023/07/18 10:51:54;;;;;;;0.20;0.20;;;25.70;65.60;;;;;;6281180;28;20067;-47
2023/07/18 10:54:57;;;;;;;0.40;0.30;;;24.60;65.10;;;;;;6283973;28;20579;-49
2023/07/18 10:57:59;;;;;;;0.30;0.30;;;;;;;;;;6266754;28;20039;-49
2023/07/18 11:01:01;;;;;;;1.38;0.43;;;;;;;;;;6278716;28;20602;-48
2023/07/18 11:04:07;;;;;;;0.30;0.20;;;24.50;64.50;;;;;;6284326;28;20036;-50
2023/07/18 11:07:10;;;;;;;0.73;0.40;;;;;;;;;;6269013;28;20782;-49
2023/07/18 11:10:13;;;;;;;0.82;0.40;;;24.60;64.20;;;;;;6282494;28;20044;-48
2023/07/18 11:13:16;;;;;;;0.60;0.35;;;;;;;;;;6264324;28;20042;-48
2023/07/18 11:16:18;;;;;;;1.05;0.45;;;24.60;65.10;;;;;;6286354;28;20036;-47
2023/07/18 11:19:21;;;;;;;0.93;0.30;;;24.80;64.40;;;;;;6284238;28;20892;-45
2023/07/18 11:22:23;;;;;;;0.50;0.32;;;;;;;;;;6284360;28;20667;-51
2023/07/18 11:25:25;;;;;;;0.32;0.30;;;;;;;;;;6287632;28;20113;-49
2023/07/18 11:28:29;;;;;;;0.95;0.50;;;24.70;64.10;;;;;;6285247;28;20542;-47
2023/07/18 11:31:38;;;;;;;0.55;0.32;;;24.50;64.10;;;;;;6281402;28;20050;-45
2023/07/18 11:34:57;;;;;;;0.65;0.30;;;24.60;64.00;;;;;;6288468;28;20039;-50
2023/07/18 11:37:58;;;;;;;0.63;0.30;;;;;;;;;;6287744;28;20039;-48
2023/07/18 11:41:02;;;;;;;0.40;0.20;;;;;;;;;;6287289;28;20044;-51
2023/07/18 11:44:06;;;;;;;0.73;0.52;;;24.90;63.90;;;;;;6286534;28;20047;-55
2023/07/18 11:47:10;;;;;;;0.32;0.30;;;24.70;63.80;;;;;;6268577;28;20037;-52
2023/07/18 11:50:14;;;;;;;0.35;0.25;;;24.80;64.50;;;;;;6281502;28;20060;-54
2023/07/18 11:53:25;;;;;;;0.50;0.30;;;24.70;64.20;;;;;;6283344;28;20040;-53
2023/07/18 11:56:27;;;;;;;0.68;0.43;;;;;;;;;;6278755;28;20371;-52
2023/07/18 11:59:29;;;;;;;0.63;0.40;;;;;;;;;;6280802;28;20067;-51
2023/07/18 12:02:31;;;;;;;0.47;0.30;;;;;;;;;;6281956;28;20036;-51
2023/07/18 12:05:34;;;;;;;0.98;0.68;;;24.80;63.00;;;;;;6270704;28;20032;-52
2023/07/18 12:08:36;;;;;;;1.45;0.40;;;;;;;;;;6284876;28;20123;-51
2023/07/18 12:11:38;;;;;;;4.07;0.47;;;;;;;;;;6273101;28;20036;-52
2023/07/18 12:14:44;;;;;;;0.40;0.30;;;;;;;;;;6277841;28;20036;-52
2023/07/18 12:17:46;;;;;;;0.50;0.30;;;;;;;;;;6278894;28;20035;-52
2023/07/18 12:20:49;;;;;;;1.20;0.50;;;24.80;63.20;;;;;;6277762;28;20111;-54
2023/07/18 12:23:51;;;;;;;0.35;0.25;;;;;;;;;;6275354;28;20036;-50
2023/07/18 12:26:53;;;;;;;0.50;0.50;;;;;;;;;;6261296;28;20040;-53
2023/07/18 12:29:55;;;;;;;0.70;0.45;;;;;;;;;;6281161;28;20126;-53
2023/07/18 12:32:58;;;;;;;1.15;0.40;;;;;;;;;;6280611;28;20043;-51
2023/07/18 12:36:00;;;;;;;0.55;0.40;;;25.10;63.30;;;;;;6277006;28;20111;-50
2023/07/18 12:39:02;;;;;;;0.40;0.30;;;;;;;;;;6269323;28;20048;-50
2023/07/18 12:42:04;;;;;;;1.58;0.60;;;;;;;;;;6278205;28;20028;-51
2023/07/18 12:45:07;;;;;;;0.73;0.50;;;25.10;64.00;;;;;;6278073;28;20036;-48
2023/07/18 12:48:09;;;;;;;0.65;0.50;;;;;;;;;;6286171;28;20032;-52
2023/07/18 12:51:11;;;;;;;0.45;0.32;;;25.10;62.50;;;;;;6282333;28;20040;-53
2023/07/18 12:54:13;;;;;;;0.98;0.50;;;;;;;;;;6284317;28;20606;-52
2023/07/18 12:57:15;;;;;;;2.38;0.52;;;;;;;;;;6284092;28;20040;-51
2023/07/18 13:00:17;;;;;;;1.80;0.50;;;24.90;62.60;;;;;;6283865;28;20040;-52
2023/07/18 13:03:19;;;;;;;1.75;0.50;;;;;;;;;;6289259;28;20038;-48
2023/07/18 13:06:23;;;;;;;0.68;0.47;;;25.00;63.00;;;;;;6276446;28;20090;-51
2023/07/18 13:09:26;;;;;;;0.63;0.45;;;;;;;;;;6273543;28;20044;-53
2023/07/18 13:12:34;;;;;;;0.75;0.47;;;25.00;63.00;;;;;;6281122;28;20568;-50
2023/07/18 13:15:36;;;;;;;2.15;0.80;;;;;;;;;;6273980;28;20410;-50
2023/07/18 13:18:38;;;;;;;1.48;0.70;;;;;;;;;;6274508;28;20059;-50
2023/07/18 13:21:40;;;;;;;0.98;0.60;;;25.00;63.10;;;;;;6269212;28;20192;-50
2023/07/18 13:24:42;;;;;;;0.88;0.60;;;;;;;;;;6257357;28;20492;-51
2023/07/18 13:27:44;;;;;;;0.95;0.52;;;;;;;;;;6272128;28;20252;-54
2023/07/18 13:30:46;;;;;;;0.90;0.70;;;;;;;;;;6275210;28;20036;-55
2023/07/18 13:33:48;;;;;;;0.95;0.70;;;;;;;;;;6274011;28;20089;-53
2023/07/18 13:36:51;;;;;;;1.08;0.80;;;25.20;63.40;;;;;;6276258;28;20325;-54
2023/07/18 13:39:52;;;;;;;1.30;0.77;;;;;;;;;;6275081;28;20100;-53
2023/07/18 13:42:54;;;;;;;0.68;0.50;;;;;;;;;;6274200;28;20119;-53
2023/07/18 13:45:56;;;;;;;2.78;0.60;;;;;;;;;;6272632;28;20127;-56
2023/07/18 13:48:58;;;;;;;0.47;0.40;;;;;;;;;;6271603;28;20621;-47
2023/07/18 13:52:00;;;;;;;1.10;0.60;;;25.10;62.80;;;;;;6273233;28;20333;-50
2023/07/18 13:55:05;;;;;;;0.98;0.50;;;25.00;62.70;;;;;;6276555;28;20036;-50
2023/07/18 13:58:08;;;;;;;1.75;0.50;;;;;;;;;;6272816;28;20036;-52
2023/07/18 14:01:11;;;;;;;0.70;0.60;;;;;;;;;;6276027;28;20316;-48
2023/07/18 14:04:13;;;;;;;1.73;0.57;;;;;;;;;;6268405;28;20051;-50
2023/07/18 14:07:15;;;;;;;0.45;0.40;;;25.10;63.20;;;;;;6266640;28;20154;-50
2023/07/18 14:10:17;;;;;;;0.60;0.50;;;;;;;;;;6262350;28;20402;-51
2023/07/18 14:13:20;;;;;;;0.75;0.50;;;25.30;63.20;;;;;;6254313;28;20340;-52
2023/07/18 14:16:22;;;;;;;0.63;0.50;;;;;;;;;;6255141;28;20036;-53
2023/07/18 14:19:25;;;;;;;0.65;0.40;;;;;;;;;;6257148;28;20119;-49
2023/07/18 14:22:27;;;;;;;0.70;0.60;;;25.10;62.80;;;;;;6257781;28;20729;-50
2023/07/18 14:25:30;;;;;;;0.90;0.68;;;;;;;;;;6263733;28;20047;-52
2023/07/18 14:28:31;;;;;;;0.75;0.60;;;;;;;;;;6260067;28;20040;-53
2023/07/18 14:31:33;;;;;;;0.77;0.50;;;;;;;;;;6272013;28;20047;-53
2023/07/18 14:34:35;;;;;;;0.60;0.40;;;;;;;;;;6278941;28;20043;-51
2023/07/18 14:37:37;;;;;;;1.15;0.60;;;25.10;70.70;;;;;;6277798;28;20442;-54
2023/07/18 14:40:39;;;;;;;0.93;0.57;;;;;;;;;;6282373;28;20059;-52
2023/07/18 14:43:41;;;;;;;0.50;0.50;;;;;;;;;;6281548;28;20119;-50
2023/07/18 14:46:49;;;;;;;1.00;0.50;;;;;;;;;;6285867;28;20037;-51
2023/07/18 14:49:51;;;;;;;0.47;0.40;;;;;;;;;;6285017;28;20035;-53
2023/07/18 14:52:53;;;;;;;0.82;0.70;;;25.20;63.00;;;;;;6283357;28;20134;-51
2023/07/18 14:55:55;;;;;;;0.65;0.40;;;24.80;64.30;;;;;;6284201;28;20048;-52
2023/07/18 14:58:59;;;;;;;0.60;0.50;;;;;;;;;;6287660;28;20040;-52
2023/07/18 15:02:01;;;;;;;0.80;0.50;;;;;;;;;;6279743;28;20040;-55
2023/07/18 15:05:03;;;;;;;0.77;0.50;;;;;;;;;;6282202;28;20040;-55
2023/07/18 15:08:05;;;;;;;0.85;0.40;;;25.10;61.50;;;;;;6280214;28;20071;-57
2023/07/18 15:11:09;;;;;;;0.68;0.47;;;;;;;;;;6280439;28;20036;-53
2023/07/18 15:14:11;;;;;;;0.80;0.43;;;;;;;;;;6259473;28;20419;-53
2023/07/18 15:17:13;;;;;;;0.60;0.50;;;;;;;;;;6258502;28;20043;-55
2023/07/18 15:20:16;;;;;;;0.50;0.50;;;25.20;60.50;;;;;;6245435;28;20101;-53
2023/07/18 15:23:18;;;;;;;1.80;0.40;;;25.10;60.40;;;;;;6261090;28;20043;-51
2023/07/18 15:26:20;;;;;;;0.70;0.52;;;;;;;;;;6263951;28;20028;-53
2023/07/18 15:29:23;;;;;;;1.30;0.30;;;;;;;;;;6260550;28;20044;-47
2023/07/18 15:32:27;;;;;;;0.70;0.50;;;25.10;57.70;;;;;;6261163;28;20123;-47
2023/07/18 15:35:31;;;;;;;1.17;0.80;;;;;;;;;;6268821;28;20111;-51
2023/07/18 15:38:33;;;;;;;0.95;0.77;;;25.20;60.10;;;;;;6282762;28;20086;-49
2023/07/18 15:41:35;;;;;;;0.95;0.70;;;;;;;;;;6280228;28;20068;-50
2023/07/18 15:44:37;;;;;;;0.50;0.40;;;;;;;;;;6277353;28;20035;-46
2023/07/18 15:47:39;;;;;;;0.75;0.50;;;;;;;;;;6272164;28;20047;-50
2023/07/18 15:50:41;;;;;;;0.73;0.60;;;;;;;;;;6277012;28;20036;-53
2023/07/18 15:53:45;;;;;;;0.43;0.30;;;25.10;59.20;;;;;;6279153;28;20071;-53
2023/07/18 15:56:49;;;;;;;1.52;0.47;;;25.20;59.80;;;;;;6282137;28;20040;-50
2023/07/18 15:59:51;;;;;;;0.95;0.30;;;;;;;;;;6282492;28;20429;-51
2023/07/18 16:02:53;;;;;;;0.43;0.30;;;;;;;;;;6278637;28;20486;-51
2023/07/18 16:06:00;;;;;;;0.55;0.35;;;25.10;60.20;;;;;;6274101;28;20720;-53
2023/07/18 16:09:02;;;;;;;0.60;0.50;;;25.10;59.00;;;;;;6273607;28;20033;-54
2023/07/18 16:12:04;;;;;;;8.60;0.88;;;;;;;;;;6280639;28;20309;-52
2023/07/18 16:15:10;;;;;;;0.85;0.40;;;25.20;59.20;;;;;;6270159;28;20051;-53
2023/07/18 16:18:15;;;;;;;1.48;0.40;;;;;;;;;;6271734;28;20040;-50
2023/07/18 16:21:17;;;;;;;0.50;0.40;;;;;;;;;;6269659;28;20059;-51
2023/07/18 16:24:19;;;;;;;0.65;0.50;;;25.10;58.50;;;;;;6278201;28;20032;-51
2023/07/18 16:27:21;;;;;;;0.73;0.45;;;;;;;;;;6279224;28;20032;-49
2023/07/18 16:30:23;;;;;;;0.38;0.20;;;;;;;;;;6280938;28;20047;-53
2023/07/18 16:33:25;;;;;;;0.40;0.40;;;;;;;;;;6281633;28;20040;-54
2023/07/18 16:36:28;;;;;;;0.40;0.30;;;;;;;;;;6279258;28;20066;-54
2023/07/18 16:39:30;;;;;;;0.57;0.32;;;25.60;56.80;;;;;;6279151;28;20044;-51
2023/07/18 16:42:32;;;;;;;0.40;0.40;;;;;;;;;;6283209;28;20029;-51
2023/07/18 16:45:36;;;;;;;0.40;0.30;;;;;;;;;;6283990;28;20047;-53
2023/07/18 16:48:38;;;;;;;0.17;0.17;;;;;;;;;;6284892;28;20047;-53
2023/07/18 16:51:41;;;;;;;1.20;0.45;;;;;;;;;;6286553;28;20644;-53
2023/07/18 16:54:45;;;;;;;0.75;0.30;;;26.00;59.70;;;;;;6287304;28;20032;-53
2023/07/18 16:57:47;;;;;;;0.45;0.30;;;;;;;;;;6290933;28;20043;-51
2023/07/18 17:00:49;;;;;;;0.60;0.40;;;;;;;;;;6290336;28;20040;-52
2023/07/18 17:03:57;;;;;;;0.35;0.30;;;26.50;60.70;;;;;;6287286;28;20093;-53
2023/07/18 17:07:02;;;;;;;0.60;0.40;;;;;;;;;;6288338;28;20085;-52
2023/07/18 17:10:09;;;;;;;0.80;0.30;;;26.00;61.40;;;;;;6290614;28;20555;-51
2023/07/18 17:13:11;;;;;;;0.20;0.20;;;;;;;;;;6286790;28;20036;-52
2023/07/18 17:16:13;;;;;;;0.20;0.20;;;;;;;;;;6287023;28;20044;-53